This is the latest recevied weather packets stored in our database for station/object KE5QKR. If no packets are shown the sender has not sent any weather packets the latest 1 day(s).
| Time | Temp. | Humidity | Pressure | Rain* | Wind** | Luminosity | Snow |
|---|---|---|---|---|---|---|---|
| 1777999679 | 26.67° C | 68% | 1012 hPa | 0 mm | 0.45 m/s, 328° | 473 W/m² | - |
| 1777999376 | 26.11° C | 73% | 1012.2 hPa | 0 mm | 0.89 m/s, 274° | 721 W/m² | - |
| 1777999074 | 25.56° C | 74% | 1012.2 hPa | 0 mm | 0 m/s | 243 W/m² | - |
| 1777998773 | 25° C | 74% | 1012 hPa | 0 mm | 0.89 m/s, 291° | 323 W/m² | - |
| 1777998470 | 25.56° C | 74% | 1012.3 hPa | 0 mm | 0.45 m/s, 222° | 447 W/m² | - |
| 1777998166 | 25.56° C | 74% | 1012.2 hPa | 0 mm | 0.45 m/s, 311° | 597 W/m² | - |
| 1777997863 | 25.56° C | 73% | 1012.3 hPa | 0 mm | 0 m/s | 339 W/m² | - |
| 1777997561 | 25.56° C | 72% | 1012.3 hPa | 0 mm | 0 m/s | 498 W/m² | - |
| 1777997258 | 25.56° C | 74% | 1012.3 hPa | 0 mm | 0 m/s | 432 W/m² | - |
| 1777996956 | 25° C | 72% | 1012.2 hPa | 0 mm | 0 m/s | 442 W/m² | - |
| 1777996652 | 25° C | 73% | 1012.2 hPa | 0 mm | 0.45 m/s, 306° | 250 W/m² | - |
| 1777996348 | 25.56° C | 72% | 1012.1 hPa | 0 mm | 0.45 m/s, 292° | 246 W/m² | - |
| 1777996045 | 26.11° C | 72% | 1012.2 hPa | 0 mm | 0.45 m/s, 292° | 465 W/m² | - |
| 1777995741 | 26.67° C | 71% | 1012.3 hPa | 0 mm | 0.45 m/s, 306° | 582 W/m² | - |
| 1777995437 | 26.11° C | 71% | 1012.3 hPa | 0 mm | 1.34 m/s, 211° | 692 W/m² | - |
| 1777995135 | 25.56° C | 72% | 1012 hPa | 0 mm | 0.45 m/s, 270° | 564 W/m² | - |
| 1777994832 | 25.56° C | 71% | 1012.2 hPa | 0 mm | 0 m/s | 514 W/m² | - |
| 1777994528 | 25.56° C | 73% | 1012.1 hPa | 0 mm | 0.45 m/s, 352° | 630 W/m² | - |
| 1777994223 | 25° C | 75% | 1012.1 hPa | 0 mm | 0 m/s | 569 W/m² | - |
| 1777993921 | 25° C | 75% | 1012.3 hPa | 0 mm | 0 m/s | 497 W/m² | - |
| 1777993616 | 25° C | 75% | 1012.2 hPa | 0 mm | 0.45 m/s, 307° | 375 W/m² | - |
| 1777993314 | 24.44° C | 75% | 1012.1 hPa | 0 mm | 0 m/s | 477 W/m² | - |
| 1777993009 | 24.44° C | 77% | 1012.3 hPa | 0 mm | 0.45 m/s, 325° | 441 W/m² | - |
| 1777992708 | 25° C | 76% | 1012.3 hPa | 0 mm | 0 m/s | 281 W/m² | - |
| 1777992405 | 24.44° C | 77% | 1012.3 hPa | 0 mm | 0 m/s | 339 W/m² | - |
* Rain latest hour (hover to see other rain measurements)
** Current wind speed in m/s (hover to see current wind gust speed)